sensor_id;sensor_type;location;lat;lon;timestamp;P1;durP1;ratioP1;P2;durP2;ratioP2
23288;SDS011;11813;50.834;4.280;2023-02-10T00:01:46;46.83;;;28.03;;
23288;SDS011;11813;50.834;4.280;2023-02-10T00:04:12;45.73;;;26.23;;
23288;SDS011;11813;50.834;4.280;2023-02-10T00:06:39;45.30;;;25.53;;
23288;SDS011;11813;50.834;4.280;2023-02-10T00:09:05;47.90;;;26.73;;
23288;SDS011;11813;50.834;4.280;2023-02-10T00:11:31;52.47;;;27.67;;
23288;SDS011;11813;50.834;4.280;2023-02-10T00:14:16;48.10;;;26.00;;
23288;SDS011;11813;50.834;4.280;2023-02-10T00:16:43;42.83;;;25.73;;
23288;SDS011;11813;50.834;4.280;2023-02-10T00:19:09;44.83;;;27.20;;
23288;SDS011;11813;50.834;4.280;2023-02-10T00:21:35;46.90;;;28.60;;
23288;SDS011;11813;50.834;4.280;2023-02-10T00:24:01;50.20;;;27.27;;
23288;SDS011;11813;50.834;4.280;2023-02-10T00:26:27;49.63;;;27.30;;
23288;SDS011;11813;50.834;4.280;2023-02-10T00:28:52;49.40;;;27.47;;
23288;SDS011;11813;50.834;4.280;2023-02-10T00:31:18;46.80;;;27.93;;
23288;SDS011;11813;50.834;4.280;2023-02-10T00:33:44;48.27;;;26.70;;
23288;SDS011;11813;50.834;4.280;2023-02-10T00:36:11;51.97;;;28.33;;
23288;SDS011;11813;50.834;4.280;2023-02-10T00:38:37;48.87;;;28.00;;
23288;SDS011;11813;50.834;4.280;2023-02-10T00:41:08;50.97;;;27.60;;
23288;SDS011;11813;50.834;4.280;2023-02-10T00:43:35;46.10;;;26.87;;
23288;SDS011;11813;50.834;4.280;2023-02-10T00:46:01;50.23;;;28.10;;
23288;SDS011;11813;50.834;4.280;2023-02-10T00:48:27;50.37;;;28.57;;
23288;SDS011;11813;50.834;4.280;2023-02-10T00:50:53;53.10;;;27.40;;
23288;SDS011;11813;50.834;4.280;2023-02-10T00:53:18;54.07;;;29.37;;
23288;SDS011;11813;50.834;4.280;2023-02-10T00:55:44;52.03;;;29.77;;
23288;SDS011;11813;50.834;4.280;2023-02-10T00:58:09;54.03;;;29.70;;
23288;SDS011;11813;50.834;4.280;2023-02-10T01:00:35;53.43;;;30.10;;
23288;SDS011;11813;50.834;4.280;2023-02-10T01:03:01;52.27;;;31.13;;
23288;SDS011;11813;50.834;4.280;2023-02-10T01:05:26;53.30;;;27.90;;
23288;SDS011;11813;50.834;4.280;2023-02-10T01:07:52;50.20;;;29.97;;
23288;SDS011;11813;50.834;4.280;2023-02-10T01:10:18;46.03;;;27.97;;
23288;SDS011;11813;50.834;4.280;2023-02-10T01:12:44;56.13;;;31.20;;
23288;SDS011;11813;50.834;4.280;2023-02-10T01:15:09;51.13;;;28.87;;
23288;SDS011;11813;50.834;4.280;2023-02-10T01:17:35;47.63;;;28.23;;
23288;SDS011;11813;50.834;4.280;2023-02-10T01:20:01;50.03;;;27.77;;
23288;SDS011;11813;50.834;4.280;2023-02-10T01:22:28;49.97;;;29.23;;
23288;SDS011;11813;50.834;4.280;2023-02-10T01:24:53;49.67;;;28.47;;
23288;SDS011;11813;50.834;4.280;2023-02-10T01:27:19;50.57;;;28.00;;
23288;SDS011;11813;50.834;4.280;2023-02-10T01:29:44;56.70;;;30.10;;
23288;SDS011;11813;50.834;4.280;2023-02-10T01:32:10;55.97;;;28.43;;
23288;SDS011;11813;50.834;4.280;2023-02-10T01:34:36;48.20;;;27.83;;
23288;SDS011;11813;50.834;4.280;2023-02-10T01:37:01;51.20;;;28.50;;
23288;SDS011;11813;50.834;4.280;2023-02-10T01:39:27;56.00;;;30.27;;
23288;SDS011;11813;50.834;4.280;2023-02-10T01:41:53;56.53;;;30.50;;
23288;SDS011;11813;50.834;4.280;2023-02-10T01:46:44;52.93;;;30.40;;
23288;SDS011;11813;50.834;4.280;2023-02-10T01:49:12;56.97;;;30.70;;
23288;SDS011;11813;50.834;4.280;2023-02-10T01:51:42;62.60;;;32.50;;
23288;SDS011;11813;50.834;4.280;2023-02-10T01:54:14;59.27;;;33.10;;
23288;SDS011;11813;50.834;4.280;2023-02-10T01:56:45;58.73;;;30.80;;
23288;SDS011;11813;50.834;4.280;2023-02-10T01:59:12;51.47;;;29.37;;
23288;SDS011;11813;50.834;4.280;2023-02-10T02:01:38;57.40;;;31.23;;
23288;SDS011;11813;50.834;4.280;2023-02-10T02:04:04;55.40;;;30.50;;
23288;SDS011;11813;50.834;4.280;2023-02-10T02:06:30;55.90;;;30.70;;
23288;SDS011;11813;50.834;4.280;2023-02-10T02:08:56;59.63;;;31.10;;
23288;SDS011;11813;50.834;4.280;2023-02-10T02:12:06;60.10;;;32.00;;
23288;SDS011;11813;50.834;4.280;2023-02-10T02:33:02;49.23;;;28.20;;
23288;SDS011;11813;50.834;4.280;2023-02-10T02:35:37;55.63;;;30.67;;
23288;SDS011;11813;50.834;4.280;2023-02-10T02:38:08;56.83;;;27.87;;
23288;SDS011;11813;50.834;4.280;2023-02-10T02:40:35;55.37;;;30.97;;
23288;SDS011;11813;50.834;4.280;2023-02-10T02:43:00;58.63;;;29.17;;
23288;SDS011;11813;50.834;4.280;2023-02-10T02:45:27;56.93;;;32.10;;
23288;SDS011;11813;50.834;4.280;2023-02-10T02:48:10;62.97;;;32.43;;
23288;SDS011;11813;50.834;4.280;2023-02-10T02:59:10;60.67;;;33.13;;
23288;SDS011;11813;50.834;4.280;2023-02-10T03:01:45;66.80;;;32.93;;
23288;SDS011;11813;50.834;4.280;2023-02-10T03:04:17;61.80;;;31.87;;
23288;SDS011;11813;50.834;4.280;2023-02-10T03:06:43;60.80;;;31.20;;
23288;SDS011;11813;50.834;4.280;2023-02-10T03:09:09;58.97;;;30.73;;
23288;SDS011;11813;50.834;4.280;2023-02-10T03:11:35;60.57;;;31.57;;
23288;SDS011;11813;50.834;4.280;2023-02-10T03:14:01;65.30;;;32.37;;
23288;SDS011;11813;50.834;4.280;2023-02-10T03:16:26;59.90;;;32.30;;
23288;SDS011;11813;50.834;4.280;2023-02-10T03:18:52;55.93;;;30.30;;
23288;SDS011;11813;50.834;4.280;2023-02-10T03:21:17;61.27;;;31.33;;
23288;SDS011;11813;50.834;4.280;2023-02-10T03:23:43;68.13;;;31.70;;
23288;SDS011;11813;50.834;4.280;2023-02-10T03:26:08;58.70;;;31.13;;
23288;SDS011;11813;50.834;4.280;2023-02-10T03:28:34;58.83;;;30.93;;
23288;SDS011;11813;50.834;4.280;2023-02-10T03:31:06;52.93;;;30.30;;
23288;SDS011;11813;50.834;4.280;2023-02-10T03:33:34;61.33;;;30.90;;
23288;SDS011;11813;50.834;4.280;2023-02-10T03:35:59;62.97;;;31.17;;
23288;SDS011;11813;50.834;4.280;2023-02-10T03:38:26;64.50;;;31.97;;
23288;SDS011;11813;50.834;4.280;2023-02-10T03:40:52;63.23;;;30.37;;
23288;SDS011;11813;50.834;4.280;2023-02-10T03:43:19;59.73;;;31.17;;
23288;SDS011;11813;50.834;4.280;2023-02-10T03:45:45;58.87;;;29.33;;
23288;SDS011;11813;50.834;4.280;2023-02-10T03:48:12;69.07;;;31.50;;
23288;SDS011;11813;50.834;4.280;2023-02-10T03:50:38;62.53;;;31.57;;
23288;SDS011;11813;50.834;4.280;2023-02-10T03:53:04;60.07;;;30.33;;
23288;SDS011;11813;50.834;4.280;2023-02-10T03:55:30;62.17;;;30.00;;
23288;SDS011;11813;50.834;4.280;2023-02-10T03:57:55;59.43;;;31.03;;
23288;SDS011;11813;50.834;4.280;2023-02-10T04:00:21;59.30;;;29.77;;
23288;SDS011;11813;50.834;4.280;2023-02-10T04:02:47;61.60;;;31.57;;
23288;SDS011;11813;50.834;4.280;2023-02-10T04:05:13;63.13;;;31.07;;
23288;SDS011;11813;50.834;4.280;2023-02-10T04:07:39;71.10;;;32.97;;
23288;SDS011;11813;50.834;4.280;2023-02-10T04:10:05;70.53;;;33.57;;
23288;SDS011;11813;50.834;4.280;2023-02-10T04:12:31;64.20;;;31.83;;
23288;SDS011;11813;50.834;4.280;2023-02-10T04:14:57;70.20;;;32.13;;
23288;SDS011;11813;50.834;4.280;2023-02-10T04:17:22;69.37;;;33.63;;
23288;SDS011;11813;50.834;4.280;2023-02-10T04:19:48;66.10;;;32.67;;
23288;SDS011;11813;50.834;4.280;2023-02-10T04:22:14;64.30;;;31.63;;
23288;SDS011;11813;50.834;4.280;2023-02-10T04:24:39;62.70;;;31.80;;
23288;SDS011;11813;50.834;4.280;2023-02-10T04:27:05;67.10;;;31.37;;
23288;SDS011;11813;50.834;4.280;2023-02-10T04:29:30;62.27;;;30.07;;
23288;SDS011;11813;50.834;4.280;2023-02-10T04:31:56;61.20;;;30.47;;
23288;SDS011;11813;50.834;4.280;2023-02-10T04:34:22;58.10;;;28.30;;
23288;SDS011;11813;50.834;4.280;2023-02-10T04:36:47;65.77;;;29.93;;
23288;SDS011;11813;50.834;4.280;2023-02-10T04:39:13;53.70;;;29.03;;
23288;SDS011;11813;50.834;4.280;2023-02-10T04:41:38;62.17;;;30.03;;
23288;SDS011;11813;50.834;4.280;2023-02-10T04:44:04;61.17;;;28.73;;
23288;SDS011;11813;50.834;4.280;2023-02-10T04:46:30;62.50;;;28.17;;
23288;SDS011;11813;50.834;4.280;2023-02-10T04:48:56;59.47;;;30.13;;
23288;SDS011;11813;50.834;4.280;2023-02-10T04:51:21;63.43;;;28.67;;
23288;SDS011;11813;50.834;4.280;2023-02-10T04:53:47;60.23;;;30.33;;
23288;SDS011;11813;50.834;4.280;2023-02-10T04:56:13;62.07;;;29.67;;
23288;SDS011;11813;50.834;4.280;2023-02-10T04:58:40;62.63;;;31.33;;
23288;SDS011;11813;50.834;4.280;2023-02-10T05:01:06;63.07;;;30.50;;
23288;SDS011;11813;50.834;4.280;2023-02-10T05:03:33;64.90;;;30.53;;
23288;SDS011;11813;50.834;4.280;2023-02-10T05:05:58;59.60;;;30.53;;
23288;SDS011;11813;50.834;4.280;2023-02-10T05:08:24;67.07;;;30.13;;
23288;SDS011;11813;50.834;4.280;2023-02-10T05:10:50;63.67;;;30.60;;
23288;SDS011;11813;50.834;4.280;2023-02-10T05:13:16;67.17;;;31.40;;
23288;SDS011;11813;50.834;4.280;2023-02-10T05:15:42;65.40;;;31.50;;
23288;SDS011;11813;50.834;4.280;2023-02-10T05:18:07;68.80;;;31.83;;
23288;SDS011;11813;50.834;4.280;2023-02-10T05:20:33;71.67;;;33.97;;
23288;SDS011;11813;50.834;4.280;2023-02-10T05:22:59;71.10;;;35.30;;
23288;SDS011;11813;50.834;4.280;2023-02-10T05:25:24;63.30;;;33.63;;
23288;SDS011;11813;50.834;4.280;2023-02-10T05:27:50;66.37;;;33.47;;
23288;SDS011;11813;50.834;4.280;2023-02-10T05:30:16;70.97;;;34.13;;
23288;SDS011;11813;50.834;4.280;2023-02-10T05:32:42;66.50;;;33.73;;
23288;SDS011;11813;50.834;4.280;2023-02-10T05:35:08;79.13;;;38.63;;
23288;SDS011;11813;50.834;4.280;2023-02-10T05:37:34;74.60;;;36.37;;
23288;SDS011;11813;50.834;4.280;2023-02-10T05:39:59;73.80;;;36.60;;
23288;SDS011;11813;50.834;4.280;2023-02-10T05:42:25;69.10;;;36.47;;
23288;SDS011;11813;50.834;4.280;2023-02-10T05:44:51;66.30;;;35.33;;
23288;SDS011;11813;50.834;4.280;2023-02-10T05:47:16;76.67;;;38.07;;
23288;SDS011;11813;50.834;4.280;2023-02-10T05:49:42;73.83;;;35.13;;
23288;SDS011;11813;50.834;4.280;2023-02-10T05:52:08;72.17;;;34.67;;
23288;SDS011;11813;50.834;4.280;2023-02-10T05:54:33;65.13;;;33.37;;
23288;SDS011;11813;50.834;4.280;2023-02-10T05:56:59;69.90;;;33.20;;
23288;SDS011;11813;50.834;4.280;2023-02-10T05:59:25;64.80;;;31.87;;
23288;SDS011;11813;50.834;4.280;2023-02-10T06:01:51;60.13;;;32.23;;
23288;SDS011;11813;50.834;4.280;2023-02-10T06:04:17;60.63;;;32.07;;
23288;SDS011;11813;50.834;4.280;2023-02-10T06:06:42;64.57;;;32.47;;
23288;SDS011;11813;50.834;4.280;2023-02-10T06:09:08;60.17;;;32.50;;
23288;SDS011;11813;50.834;4.280;2023-02-10T06:11:33;65.23;;;34.17;;
23288;SDS011;11813;50.834;4.280;2023-02-10T06:13:59;64.43;;;32.97;;
23288;SDS011;11813;50.834;4.280;2023-02-10T06:16:25;62.57;;;34.00;;
23288;SDS011;11813;50.834;4.280;2023-02-10T06:18:51;67.80;;;33.37;;
23288;SDS011;11813;50.834;4.280;2023-02-10T06:21:16;64.40;;;33.20;;
23288;SDS011;11813;50.834;4.280;2023-02-10T06:23:42;61.73;;;32.97;;
23288;SDS011;11813;50.834;4.280;2023-02-10T06:26:08;70.40;;;36.50;;
23288;SDS011;11813;50.834;4.280;2023-02-10T06:28:34;69.23;;;35.20;;
23288;SDS011;11813;50.834;4.280;2023-02-10T06:30:59;67.83;;;36.07;;
23288;SDS011;11813;50.834;4.280;2023-02-10T06:33:25;71.47;;;36.47;;
23288;SDS011;11813;50.834;4.280;2023-02-10T06:35:51;74.00;;;36.73;;
23288;SDS011;11813;50.834;4.280;2023-02-10T06:38:16;73.57;;;38.43;;
23288;SDS011;11813;50.834;4.280;2023-02-10T06:40:42;70.50;;;36.57;;
23288;SDS011;11813;50.834;4.280;2023-02-10T06:43:07;72.00;;;36.17;;
23288;SDS011;11813;50.834;4.280;2023-02-10T06:45:33;71.67;;;37.27;;
23288;SDS011;11813;50.834;4.280;2023-02-10T06:48:00;71.03;;;34.97;;
23288;SDS011;11813;50.834;4.280;2023-02-10T06:50:26;70.67;;;36.37;;
23288;SDS011;11813;50.834;4.280;2023-02-10T06:52:52;64.23;;;34.23;;
23288;SDS011;11813;50.834;4.280;2023-02-10T06:55:18;72.47;;;36.97;;
23288;SDS011;11813;50.834;4.280;2023-02-10T06:57:43;69.07;;;35.87;;
23288;SDS011;11813;50.834;4.280;2023-02-10T07:00:10;71.43;;;35.77;;
23288;SDS011;11813;50.834;4.280;2023-02-10T07:02:37;67.50;;;37.27;;
23288;SDS011;11813;50.834;4.280;2023-02-10T07:05:04;65.33;;;35.20;;
23288;SDS011;11813;50.834;4.280;2023-02-10T07:07:32;71.17;;;38.47;;
23288;SDS011;11813;50.834;4.280;2023-02-10T07:09:58;65.20;;;36.30;;
23288;SDS011;11813;50.834;4.280;2023-02-10T07:12:24;71.50;;;36.40;;
23288;SDS011;11813;50.834;4.280;2023-02-10T07:14:52;65.20;;;35.90;;
23288;SDS011;11813;50.834;4.280;2023-02-10T07:17:18;70.77;;;36.37;;
23288;SDS011;11813;50.834;4.280;2023-02-10T07:19:44;69.03;;;36.03;;
23288;SDS011;11813;50.834;4.280;2023-02-10T07:22:09;64.27;;;36.70;;
23288;SDS011;11813;50.834;4.280;2023-02-10T07:24:35;67.30;;;37.17;;
23288;SDS011;11813;50.834;4.280;2023-02-10T07:27:01;65.67;;;35.80;;
23288;SDS011;11813;50.834;4.280;2023-02-10T07:29:27;65.03;;;35.83;;
23288;SDS011;11813;50.834;4.280;2023-02-10T07:31:53;76.80;;;36.53;;
23288;SDS011;11813;50.834;4.280;2023-02-10T07:34:18;70.60;;;35.47;;
23288;SDS011;11813;50.834;4.280;2023-02-10T07:36:45;70.63;;;37.60;;
23288;SDS011;11813;50.834;4.280;2023-02-10T07:39:12;76.43;;;38.93;;
23288;SDS011;11813;50.834;4.280;2023-02-10T07:41:38;90.17;;;36.60;;
23288;SDS011;11813;50.834;4.280;2023-02-10T07:44:04;77.43;;;40.77;;
23288;SDS011;11813;50.834;4.280;2023-02-10T07:46:29;68.83;;;34.23;;
23288;SDS011;11813;50.834;4.280;2023-02-10T07:48:55;74.67;;;37.53;;
23288;SDS011;11813;50.834;4.280;2023-02-10T07:51:21;64.50;;;37.07;;
23288;SDS011;11813;50.834;4.280;2023-02-10T07:53:46;75.47;;;38.20;;
23288;SDS011;11813;50.834;4.280;2023-02-10T07:56:12;78.13;;;38.17;;
23288;SDS011;11813;50.834;4.280;2023-02-10T07:58:37;77.30;;;38.87;;
23288;SDS011;11813;50.834;4.280;2023-02-10T08:01:09;76.23;;;40.03;;
23288;SDS011;11813;50.834;4.280;2023-02-10T08:03:36;76.77;;;41.00;;
23288;SDS011;11813;50.834;4.280;2023-02-10T08:06:02;84.80;;;42.00;;
23288;SDS011;11813;50.834;4.280;2023-02-10T08:08:28;87.87;;;39.57;;
23288;SDS011;11813;50.834;4.280;2023-02-10T08:10:54;88.57;;;42.63;;
23288;SDS011;11813;50.834;4.280;2023-02-10T08:13:20;90.37;;;43.63;;
23288;SDS011;11813;50.834;4.280;2023-02-10T08:15:46;93.93;;;45.77;;
23288;SDS011;11813;50.834;4.280;2023-02-10T08:18:11;98.37;;;45.80;;
23288;SDS011;11813;50.834;4.280;2023-02-10T08:20:37;84.93;;;43.30;;
23288;SDS011;11813;50.834;4.280;2023-02-10T08:23:03;96.83;;;45.90;;
23288;SDS011;11813;50.834;4.280;2023-02-10T08:25:28;91.33;;;45.57;;
23288;SDS011;11813;50.834;4.280;2023-02-10T08:27:54;93.23;;;44.13;;
23288;SDS011;11813;50.834;4.280;2023-02-10T08:30:19;82.73;;;42.83;;
23288;SDS011;11813;50.834;4.280;2023-02-10T08:32:45;89.27;;;44.17;;
23288;SDS011;11813;50.834;4.280;2023-02-10T08:35:11;90.43;;;43.57;;
23288;SDS011;11813;50.834;4.280;2023-02-10T08:37:37;89.40;;;43.20;;
23288;SDS011;11813;50.834;4.280;2023-02-10T08:40:03;97.80;;;46.00;;
23288;SDS011;11813;50.834;4.280;2023-02-10T08:42:30;101.50;;;46.57;;
23288;SDS011;11813;50.834;4.280;2023-02-10T08:44:56;105.07;;;46.57;;
23288;SDS011;11813;50.834;4.280;2023-02-10T08:47:22;106.17;;;47.17;;
23288;SDS011;11813;50.834;4.280;2023-02-10T08:49:48;97.23;;;45.43;;
23288;SDS011;11813;50.834;4.280;2023-02-10T08:52:14;104.60;;;48.53;;
23288;SDS011;11813;50.834;4.280;2023-02-10T08:54:40;100.40;;;47.50;;
23288;SDS011;11813;50.834;4.280;2023-02-10T08:57:06;101.17;;;49.30;;
23288;SDS011;11813;50.834;4.280;2023-02-10T08:59:32;108.03;;;45.73;;
23288;SDS011;11813;50.834;4.280;2023-02-10T09:01:58;100.73;;;46.50;;
23288;SDS011;11813;50.834;4.280;2023-02-10T09:04:23;94.03;;;44.73;;
23288;SDS011;11813;50.834;4.280;2023-02-10T09:06:49;107.83;;;48.70;;
23288;SDS011;11813;50.834;4.280;2023-02-10T09:09:16;111.67;;;49.70;;
23288;SDS011;11813;50.834;4.280;2023-02-10T09:11:44;100.67;;;48.80;;
23288;SDS011;11813;50.834;4.280;2023-02-10T09:14:10;103.97;;;48.57;;
23288;SDS011;11813;50.834;4.280;2023-02-10T09:16:36;107.43;;;48.00;;
23288;SDS011;11813;50.834;4.280;2023-02-10T09:19:02;106.37;;;48.63;;
23288;SDS011;11813;50.834;4.280;2023-02-10T09:21:28;109.77;;;49.33;;
23288;SDS011;11813;50.834;4.280;2023-02-10T09:23:54;118.53;;;50.20;;
23288;SDS011;11813;50.834;4.280;2023-02-10T09:26:20;105.93;;;48.40;;
23288;SDS011;11813;50.834;4.280;2023-02-10T09:28:46;118.07;;;49.13;;
23288;SDS011;11813;50.834;4.280;2023-02-10T09:31:12;111.63;;;45.83;;
23288;SDS011;11813;50.834;4.280;2023-02-10T09:33:40;108.87;;;46.00;;
23288;SDS011;11813;50.834;4.280;2023-02-10T09:36:06;107.37;;;45.97;;
23288;SDS011;11813;50.834;4.280;2023-02-10T09:38:34;116.07;;;46.93;;
23288;SDS011;11813;50.834;4.280;2023-02-10T09:41:04;113.13;;;47.97;;
23288;SDS011;11813;50.834;4.280;2023-02-10T09:43:53;113.83;;;47.70;;
23288;SDS011;11813;50.834;4.280;2023-02-10T09:51:43;113.33;;;46.60;;
23288;SDS011;11813;50.834;4.280;2023-02-10T09:54:12;111.10;;;48.60;;
23288;SDS011;11813;50.834;4.280;2023-02-10T09:56:39;125.97;;;49.10;;
23288;SDS011;11813;50.834;4.280;2023-02-10T09:59:06;121.33;;;48.90;;
23288;SDS011;11813;50.834;4.280;2023-02-10T10:01:40;123.37;;;48.83;;
23288;SDS011;11813;50.834;4.280;2023-02-10T10:04:10;117.17;;;47.43;;
23288;SDS011;11813;50.834;4.280;2023-02-10T10:06:48;118.43;;;45.43;;
23288;SDS011;11813;50.834;4.280;2023-02-10T10:11:57;125.23;;;48.03;;
23288;SDS011;11813;50.834;4.280;2023-02-10T10:17:05;119.40;;;47.43;;
23288;SDS011;11813;50.834;4.280;2023-02-10T10:24:37;118.90;;;46.43;;
23288;SDS011;11813;50.834;4.280;2023-02-10T10:29:48;109.03;;;44.47;;
23288;SDS011;11813;50.834;4.280;2023-02-10T10:35:17;102.07;;;38.63;;
23288;SDS011;11813;50.834;4.280;2023-02-10T10:37:46;89.03;;;38.03;;
23288;SDS011;11813;50.834;4.280;2023-02-10T10:40:16;82.80;;;34.37;;
23288;SDS011;11813;50.834;4.280;2023-02-10T10:42:49;88.50;;;37.27;;
23288;SDS011;11813;50.834;4.280;2023-02-10T10:45:20;86.53;;;34.50;;
23288;SDS011;11813;50.834;4.280;2023-02-10T10:50:44;91.50;;;34.93;;
23288;SDS011;11813;50.834;4.280;2023-02-10T10:53:20;85.07;;;35.40;;
23288;SDS011;11813;50.834;4.280;2023-02-10T10:55:53;78.70;;;36.40;;
23288;SDS011;11813;50.834;4.280;2023-02-10T10:58:23;88.40;;;35.47;;
23288;SDS011;11813;50.834;4.280;2023-02-10T11:00:52;93.03;;;35.10;;
23288;SDS011;11813;50.834;4.280;2023-02-10T11:03:20;75.77;;;30.93;;
23288;SDS011;11813;50.834;4.280;2023-02-10T11:11:17;64.93;;;27.53;;
23288;SDS011;11813;50.834;4.280;2023-02-10T11:13:50;63.50;;;27.27;;
23288;SDS011;11813;50.834;4.280;2023-02-10T11:16:18;67.70;;;26.40;;
23288;SDS011;11813;50.834;4.280;2023-02-10T11:18:55;62.07;;;26.67;;
23288;SDS011;11813;50.834;4.280;2023-02-10T11:21:38;62.37;;;26.43;;
23288;SDS011;11813;50.834;4.280;2023-02-10T11:24:47;69.73;;;26.23;;
23288;SDS011;11813;50.834;4.280;2023-02-10T11:27:06;65.37;;;27.00;;
23288;SDS011;11813;50.834;4.280;2023-02-10T11:29:45;63.03;;;25.63;;
23288;SDS011;11813;50.834;4.280;2023-02-10T11:32:19;60.53;;;25.67;;
23288;SDS011;11813;50.834;4.280;2023-02-10T11:35:15;60.83;;;25.97;;
23288;SDS011;11813;50.834;4.280;2023-02-10T11:37:41;69.47;;;27.87;;
23288;SDS011;11813;50.834;4.280;2023-02-10T11:40:25;68.33;;;26.23;;
23288;SDS011;11813;50.834;4.280;2023-02-10T11:42:54;62.47;;;27.83;;
23288;SDS011;11813;50.834;4.280;2023-02-10T11:45:23;77.37;;;29.57;;
23288;SDS011;11813;50.834;4.280;2023-02-10T11:53:39;65.43;;;29.20;;
23288;SDS011;11813;50.834;4.280;2023-02-10T11:56:07;67.53;;;29.00;;
23288;SDS011;11813;50.834;4.280;2023-02-10T12:06:50;65.10;;;28.50;;
23288;SDS011;11813;50.834;4.280;2023-02-10T12:12:09;60.13;;;27.10;;
23288;SDS011;11813;50.834;4.280;2023-02-10T12:17:26;63.70;;;29.00;;
23288;SDS011;11813;50.834;4.280;2023-02-10T12:23:04;61.67;;;28.87;;
23288;SDS011;11813;50.834;4.280;2023-02-10T12:25:56;63.33;;;28.90;;
23288;SDS011;11813;50.834;4.280;2023-02-10T12:31:42;65.13;;;31.13;;
23288;SDS011;11813;50.834;4.280;2023-02-10T12:46:01;56.80;;;27.27;;
23288;SDS011;11813;50.834;4.280;2023-02-10T12:53:50;67.03;;;30.20;;
23288;SDS011;11813;50.834;4.280;2023-02-10T13:00:02;68.87;;;30.30;;
23288;SDS011;11813;50.834;4.280;2023-02-10T13:02:16;72.70;;;30.13;;
23288;SDS011;11813;50.834;4.280;2023-02-10T13:05:11;68.90;;;31.10;;
23288;SDS011;11813;50.834;4.280;2023-02-10T13:07:48;70.90;;;31.83;;
23288;SDS011;11813;50.834;4.280;2023-02-10T13:12:52;59.87;;;24.93;;
23288;SDS011;11813;50.834;4.280;2023-02-10T13:15:26;61.67;;;27.10;;
23288;SDS011;11813;50.834;4.280;2023-02-10T13:17:56;66.83;;;27.23;;
23288;SDS011;11813;50.834;4.280;2023-02-10T13:20:25;64.37;;;27.33;;
23288;SDS011;11813;50.834;4.280;2023-02-10T13:31:43;66.17;;;27.70;;
23288;SDS011;11813;50.834;4.280;2023-02-10T13:34:17;71.07;;;28.03;;
23288;SDS011;11813;50.834;4.280;2023-02-10T13:36:59;73.30;;;28.97;;
23288;SDS011;11813;50.834;4.280;2023-02-10T13:39:39;71.03;;;29.97;;
23288;SDS011;11813;50.834;4.280;2023-02-10T13:47:39;67.60;;;29.47;;
23288;SDS011;11813;50.834;4.280;2023-02-10T13:57:52;74.73;;;29.30;;
23288;SDS011;11813;50.834;4.280;2023-02-10T14:00:24;71.60;;;29.10;;
23288;SDS011;11813;50.834;4.280;2023-02-10T14:03:18;64.27;;;29.47;;
23288;SDS011;11813;50.834;4.280;2023-02-10T14:05:51;65.47;;;28.00;;
23288;SDS011;11813;50.834;4.280;2023-02-10T14:13:41;71.27;;;28.70;;
23288;SDS011;11813;50.834;4.280;2023-02-10T14:18:40;72.30;;;28.23;;
23288;SDS011;11813;50.834;4.280;2023-02-10T14:21:09;67.03;;;29.83;;
23288;SDS011;11813;50.834;4.280;2023-02-10T14:23:37;71.37;;;29.83;;
23288;SDS011;11813;50.834;4.280;2023-02-10T14:26:21;73.20;;;30.33;;
23288;SDS011;11813;50.834;4.280;2023-02-10T14:28:59;70.07;;;30.40;;
23288;SDS011;11813;50.834;4.280;2023-02-10T14:31:33;71.60;;;30.83;;
23288;SDS011;11813;50.834;4.280;2023-02-10T14:34:04;72.80;;;31.03;;
23288;SDS011;11813;50.834;4.280;2023-02-10T14:36:40;71.57;;;30.07;;
23288;SDS011;11813;50.834;4.280;2023-02-10T14:39:19;69.40;;;30.30;;
23288;SDS011;11813;50.834;4.280;2023-02-10T14:41:45;72.67;;;31.83;;
23288;SDS011;11813;50.834;4.280;2023-02-10T14:44:29;69.50;;;31.37;;
23288;SDS011;11813;50.834;4.280;2023-02-10T14:46:59;67.90;;;30.60;;
23288;SDS011;11813;50.834;4.280;2023-02-10T14:49:25;74.70;;;31.83;;
23288;SDS011;11813;50.834;4.280;2023-02-10T14:51:53;74.13;;;32.13;;
23288;SDS011;11813;50.834;4.280;2023-02-10T14:54:20;70.97;;;32.60;;
23288;SDS011;11813;50.834;4.280;2023-02-10T14:56:49;67.40;;;32.33;;
23288;SDS011;11813;50.834;4.280;2023-02-10T14:59:20;68.63;;;30.77;;
23288;SDS011;11813;50.834;4.280;2023-02-10T15:01:47;75.17;;;30.70;;
23288;SDS011;11813;50.834;4.280;2023-02-10T15:04:14;75.00;;;32.03;;
23288;SDS011;11813;50.834;4.280;2023-02-10T15:06:43;68.77;;;32.67;;
23288;SDS011;11813;50.834;4.280;2023-02-10T15:09:17;75.37;;;32.43;;
23288;SDS011;11813;50.834;4.280;2023-02-10T15:11:58;70.43;;;32.03;;
23288;SDS011;11813;50.834;4.280;2023-02-10T15:17:20;74.67;;;28.53;;
23288;SDS011;11813;50.834;4.280;2023-02-10T15:22:30;66.43;;;27.03;;
23288;SDS011;11813;50.834;4.280;2023-02-10T15:33:22;67.87;;;29.30;;
23288;SDS011;11813;50.834;4.280;2023-02-10T15:38:33;67.93;;;30.50;;
23288;SDS011;11813;50.834;4.280;2023-02-10T15:41:34;64.03;;;29.23;;
23288;SDS011;11813;50.834;4.280;2023-02-10T15:44:02;67.80;;;29.57;;
23288;SDS011;11813;50.834;4.280;2023-02-10T15:46:29;68.73;;;29.37;;
23288;SDS011;11813;50.834;4.280;2023-02-10T15:49:09;66.27;;;30.20;;
23288;SDS011;11813;50.834;4.280;2023-02-10T15:51:41;71.77;;;30.07;;
23288;SDS011;11813;50.834;4.280;2023-02-10T15:54:12;76.03;;;29.50;;
23288;SDS011;11813;50.834;4.280;2023-02-10T15:56:39;78.93;;;30.33;;
23288;SDS011;11813;50.834;4.280;2023-02-10T15:59:11;72.40;;;29.37;;
23288;SDS011;11813;50.834;4.280;2023-02-10T16:01:41;69.10;;;29.43;;
23288;SDS011;11813;50.834;4.280;2023-02-10T16:04:07;75.97;;;32.40;;
23288;SDS011;11813;50.834;4.280;2023-02-10T16:06:33;72.60;;;31.23;;
23288;SDS011;11813;50.834;4.280;2023-02-10T16:09:00;78.17;;;33.37;;
23288;SDS011;11813;50.834;4.280;2023-02-10T16:11:26;79.87;;;31.63;;
23288;SDS011;11813;50.834;4.280;2023-02-10T16:13:53;78.00;;;34.63;;
23288;SDS011;11813;50.834;4.280;2023-02-10T16:16:19;72.37;;;30.37;;
23288;SDS011;11813;50.834;4.280;2023-02-10T16:18:45;81.37;;;32.70;;
23288;SDS011;11813;50.834;4.280;2023-02-10T16:21:11;76.70;;;33.37;;
23288;SDS011;11813;50.834;4.280;2023-02-10T16:23:38;73.13;;;32.40;;
23288;SDS011;11813;50.834;4.280;2023-02-10T16:26:08;70.50;;;31.10;;
23288;SDS011;11813;50.834;4.280;2023-02-10T16:28:43;68.10;;;33.23;;
23288;SDS011;11813;50.834;4.280;2023-02-10T16:31:08;70.60;;;32.10;;
23288;SDS011;11813;50.834;4.280;2023-02-10T16:33:34;75.50;;;33.37;;
23288;SDS011;11813;50.834;4.280;2023-02-10T16:36:02;85.97;;;31.90;;
23288;SDS011;11813;50.834;4.280;2023-02-10T16:38:30;71.97;;;31.93;;
23288;SDS011;11813;50.834;4.280;2023-02-10T16:40:57;72.93;;;32.90;;
23288;SDS011;11813;50.834;4.280;2023-02-10T16:43:23;74.73;;;33.77;;
23288;SDS011;11813;50.834;4.280;2023-02-10T16:45:48;75.37;;;33.50;;
23288;SDS011;11813;50.834;4.280;2023-02-10T16:48:14;80.47;;;33.87;;
23288;SDS011;11813;50.834;4.280;2023-02-10T16:50:41;75.27;;;32.60;;
23288;SDS011;11813;50.834;4.280;2023-02-10T16:53:07;85.70;;;35.77;;
23288;SDS011;11813;50.834;4.280;2023-02-10T16:55:34;80.23;;;37.10;;
23288;SDS011;11813;50.834;4.280;2023-02-10T16:58:01;85.00;;;37.77;;
23288;SDS011;11813;50.834;4.280;2023-02-10T17:00:27;94.67;;;41.03;;
23288;SDS011;11813;50.834;4.280;2023-02-10T17:02:53;90.43;;;40.63;;